Terminal Aerodrome Forecast
Issued by NWS

Home | Current Version | Previous Version | Text Only | Print | Product List | Glossary On
Versions: 1 2 3 4 5 6 7 8 9 10 11 12 13 14 15 16 17 18 19
721
FTUS43 KGRR 161736
TAFBTL
TAF
KBTL 161736Z 1618/1718 17006KT P6SM BKN045
     FM170000 14005KT P6SM SCT150
     FM170600 13006KT P6SM VCTS SCT025CB BKN050
     FM170800 14006KT P6SM VCTS OVC010CB
     FM171300 19014G24KT P6SM FEW050=

USA.gov is the U.S. government's official web portal to all federal, state and local government web resources and services.